createdAt,value
2019-04-30T00:00:38.338Z,192.57
2019-04-30T00:03:19.462Z,182.83
2019-04-30T00:05:49.398Z,200.72
2019-04-30T00:08:20.401Z,184.63
2019-04-30T00:10:51.095Z,185.63
2019-04-30T00:13:21.775Z,187.57
2019-04-30T00:15:52.964Z,202.57
2019-04-30T00:18:25.449Z,183.20
2019-04-30T00:20:56.273Z,196.83
2019-04-30T00:23:30.642Z,232.52
2019-04-30T00:26:04.968Z,182.55
2019-04-30T00:28:31.930Z,174.97
2019-04-30T00:31:02.632Z,176.65
2019-04-30T00:33:35.228Z,188.23
2019-04-30T00:36:05.779Z,184.25
2019-04-30T00:38:37.950Z,169.53
2019-04-30T00:41:10.222Z,169.65
2019-04-30T00:43:46.588Z,162.70
2019-04-30T00:46:17.255Z,160.17
2019-04-30T00:48:45.982Z,160.45
2019-04-30T00:51:21.002Z,139.52
2019-04-30T00:53:51.325Z,135.17
2019-04-30T00:56:24.655Z,131.52
2019-04-30T00:58:57.453Z,126.40
2019-04-30T01:01:44.311Z,124.10
2019-04-30T01:04:26.644Z,128.93
2019-04-30T01:06:53.599Z,127.58
2019-04-30T01:09:25.652Z,127.00
2019-04-30T01:11:56.356Z,121.63
2019-04-30T01:14:28.158Z,132.12
2019-04-30T01:16:59.526Z,126.42
2019-04-30T01:19:32.861Z,128.55
2019-04-30T01:22:03.968Z,128.50
2019-04-30T01:24:34.820Z,122.22
2019-04-30T01:27:06.703Z,131.70
2019-04-30T01:29:43.928Z,127.70
2019-04-30T01:32:17.648Z,129.40
2019-04-30T01:34:44.240Z,128.10
2019-04-30T01:37:15.823Z,131.90
2019-04-30T01:39:46.605Z,144.43
2019-04-30T01:42:18.465Z,148.70
2019-04-30T01:44:53.602Z,152.50
2019-04-30T01:47:27.672Z,152.07
2019-04-30T01:49:55.787Z,172.15
2019-04-30T01:52:36.135Z,167.90
2019-04-30T01:55:08.475Z,165.03
2019-04-30T01:57:51.320Z,158.72
2019-04-30T02:00:30.274Z,171.97
2019-04-30T02:03:01.264Z,152.38
2019-04-30T02:05:32.113Z,154.97
2019-04-30T02:08:02.733Z,158.42
2019-04-30T02:10:33.292Z,165.05
2019-04-30T02:13:03.960Z,165.13
2019-04-30T02:15:34.594Z,181.05
2019-04-30T02:18:05.368Z,159.63
2019-04-30T02:20:36.066Z,165.28
2019-04-30T02:23:06.905Z,171.28
2019-04-30T02:25:37.528Z,182.30
2019-04-30T02:28:08.957Z,182.27
2019-04-30T02:30:40.489Z,190.00
2019-04-30T02:33:11.665Z,193.83
2019-04-30T02:36:03.798Z,174.38
2019-04-30T02:38:35.232Z,179.32
2019-04-30T02:41:06.292Z,156.80
2019-04-30T02:43:39.824Z,151.87
2019-04-30T02:46:11.889Z,159.55
2019-04-30T02:48:45.846Z,147.75
2019-04-30T02:51:20.166Z,151.20
2019-04-30T02:54:14.333Z,147.87
2019-04-30T02:56:50.655Z,138.35
2019-04-30T02:59:21.184Z,152.82
2019-04-30T03:01:51.910Z,146.05
2019-04-30T03:04:22.557Z,142.00
2019-04-30T03:06:53.262Z,130.60
2019-04-30T03:09:23.876Z,133.75
2019-04-30T03:11:54.501Z,132.20
2019-04-30T03:14:25.174Z,123.60
2019-04-30T03:17:01.714Z,130.43
2019-04-30T03:19:40.119Z,121.77
2019-04-30T03:22:14.824Z,111.85
2019-04-30T03:24:45.559Z,112.05
2019-04-30T03:27:16.185Z,109.25
2019-04-30T03:29:46.873Z,110.00
2019-04-30T03:32:21.480Z,105.22
2019-04-30T03:34:51.620Z,104.75
2019-04-30T03:37:22.133Z,115.15
2019-04-30T03:39:52.798Z,117.67
2019-04-30T03:42:23.436Z,124.47
2019-04-30T03:44:54.428Z,122.40
2019-04-30T03:47:25.180Z,132.55
2019-04-30T03:49:55.866Z,118.67
2019-04-30T03:52:29.045Z,118.27
2019-04-30T03:54:59.639Z,126.22
2019-04-30T03:57:31.174Z,127.10
2019-04-30T04:00:05.761Z,130.30
2019-04-30T04:02:46.845Z,128.57
2019-04-30T04:05:22.513Z,125.35
2019-04-30T04:08:09.797Z,124.87
2019-04-30T04:10:53.084Z,118.57
2019-04-30T04:13:23.139Z,110.52
2019-04-30T04:15:53.727Z,115.03
2019-04-30T04:18:24.405Z,112.95
2019-04-30T04:21:07.394Z,111.42
2019-04-30T04:23:32.357Z,110.40
2019-04-30T04:25:59.763Z,111.53
2019-04-30T04:28:30.383Z,117.33
2019-04-30T04:31:01.045Z,115.53
2019-04-30T04:33:31.910Z,112.68
2019-04-30T04:36:02.537Z,114.92
2019-04-30T04:38:33.142Z,104.80
2019-04-30T04:41:03.760Z,103.60
2019-04-30T04:43:34.762Z,103.67
2019-04-30T04:46:09.250Z,105.97
2019-04-30T04:48:39.672Z,103.45
2019-04-30T04:51:27.782Z,102.22
2019-04-30T04:53:46.535Z,104.27
2019-04-30T04:56:19.104Z,100.30
2019-04-30T04:58:50.338Z,101.07
2019-04-30T05:01:23.958Z,92.67
2019-04-30T05:03:54.826Z,97.88
2019-04-30T05:06:25.433Z,92.45
2019-04-30T05:08:56.087Z,89.97
2019-04-30T05:11:26.956Z,88.55
2019-04-30T06:20:00.009Z,63.67
2019-04-30T06:22:38.614Z,55.10
2019-04-30T06:25:30.657Z,58.93
2019-04-30T06:28:11.591Z,60.83
2019-04-30T06:30:55.716Z,58.13
2019-04-30T06:34:33.528Z,61.17
2019-04-30T18:47:09.066Z,15.07
2019-04-30T18:49:49.534Z,16.07
2019-04-30T18:52:21.059Z,20.60
2019-04-30T18:54:55.784Z,16.83
2019-04-30T18:57:32.272Z,16.35
2019-04-30T19:00:12.690Z,21.93
2019-04-30T19:02:58.540Z,19.40
2019-04-30T19:05:32.701Z,15.57
2019-04-30T19:08:20.743Z,15.13
2019-04-30T19:11:18.669Z,17.97
2019-04-30T19:14:33.470Z,18.87
2019-04-30T19:17:49.444Z,17.77
2019-04-30T19:20:40.759Z,19.10
2019-04-30T19:23:30.574Z,23.13
2019-04-30T19:26:19.069Z,22.73
2019-04-30T19:28:49.492Z,23.30
2019-04-30T19:31:32.052Z,17.70
2019-04-30T19:34:12.050Z,19.13
2019-04-30T19:36:49.302Z,20.47
2019-04-30T19:39:29.189Z,19.70
2019-04-30T19:42:15.225Z,19.77
2019-04-30T19:45:08.918Z,24.10
2019-04-30T19:47:46.274Z,20.60
2019-04-30T19:50:24.505Z,21.20
2019-04-30T19:53:08.790Z,18.47
2019-04-30T19:55:49.282Z,17.80
2019-04-30T19:58:46.391Z,22.30
2019-04-30T20:01:21.299Z,18.83
2019-04-30T20:04:33.040Z,20.83
2019-04-30T20:12:23.114Z,19.10
2019-04-30T20:14:55.664Z,19.60
2019-04-30T20:17:29.562Z,28.93
2019-04-30T20:20:05.574Z,21.60
2019-04-30T20:22:40.659Z,24.30
2019-04-30T20:25:19.016Z,19.03
2019-04-30T20:27:51.407Z,19.67
2019-04-30T20:30:23.372Z,27.77
2019-04-30T20:32:55.292Z,20.30
2019-04-30T20:35:30.089Z,21.93
2019-04-30T20:38:20.022Z,22.93
2019-04-30T20:41:00.164Z,28.50
2019-04-30T22:55:25.801Z,77.53
2019-04-30T22:57:55.707Z,75.45
2019-04-30T23:00:33.785Z,72.47
2019-04-30T23:03:07.672Z,75.25
2019-04-30T23:05:37.728Z,70.00
2019-04-30T23:08:07.693Z,67.80
2019-04-30T23:10:38.070Z,72.80
2019-04-30T23:13:09.206Z,77.30
2019-04-30T23:15:42.073Z,72.60
2019-04-30T23:18:12.230Z,74.03
2019-04-30T23:20:42.674Z,73.52
2019-04-30T23:23:12.631Z,71.07
2019-04-30T23:25:42.538Z,70.72
2019-04-30T23:28:12.418Z,73.20
2019-04-30T23:30:42.495Z,76.62
2019-04-30T23:33:13.784Z,73.50
2019-04-30T23:35:43.743Z,77.17
2019-04-30T23:38:13.713Z,80.97
2019-04-30T23:40:48.496Z,77.53
2019-04-30T23:43:19.081Z,74.53
2019-04-30T23:45:49.433Z,80.95
2019-04-30T23:48:19.453Z,77.97
2019-04-30T23:50:49.354Z,86.02
2019-04-30T23:53:21.812Z,81.17
2019-04-30T23:55:51.660Z,80.30
2019-04-30T23:58:21.585Z,81.47
